Vancourt, Texas
Current Conditions -  °F | °C
As of 12:51 AM on Wednesday 22 Oct 2014 (Local Time) from KSJT Reporting Station
Scattered Clouds Scattered Clouds  
Wind Chill: 70°   Ceiling: Unl
Heat Index: 70°   Visibility: 10mi
Dew Point: 54°   Wind: 8mph
Humidity: 57%   Direction: 170°S
Pressure: 30.06"   Gusts: NA
Location:  31.34°N, 100.18°W
Report Text: KSJT 220551Z AUTO 17007KT 10SM SCT065 21/12 A3006 RMK AO2 SLP159 T02110122 10250 20211 402720117 50002
Loading
Personal Weather Stations






























Interactive Weather Map
Tropical Storm Tracking
New forecast layout! Learn more

10-Day Weather Forecast

Advertisements
Track Severe Weather on mobile